Time;durP1;ratioP1;P1;durP2;ratioP2;P2;SDS_P1;SDS_P2;PMS_P1;PMS_P2;Temp;Humidity;BMP_temperature;BMP_pressure;BME280_temperature;BME280_humidity;BME280_pressure;Samples;Min_cycle;Max_cycle;Signal;HPM_P1;HPM_P2
2023/05/22 00:02:05;;;;;;;27.80;19.17;;;18.40;99.90;;;;;;6185402;23;20035;-68
2023/05/22 00:04:31;;;;;;;27.17;19.05;;;18.40;99.90;;;;;;6212070;23;20023;-68
2023/05/22 00:06:57;;;;;;;28.83;19.17;;;18.40;99.90;;;;;;6212092;23;20034;-68
2023/05/22 00:09:25;;;;;;;29.75;19.63;;;18.40;99.90;;;;;;6185125;23;20026;-68
2023/05/22 00:11:51;;;;;;;29.85;20.05;;;18.40;99.90;;;;;;6211706;23;20046;-68
2023/05/22 00:14:17;;;;;;;31.92;20.58;;;18.40;99.90;;;;;;6212269;23;20047;-68
2023/05/22 00:16:43;;;;;;;35.55;20.75;;;18.40;99.90;;;;;;6212028;23;20016;-68
2023/05/22 00:19:12;;;;;;;28.13;19.98;;;18.40;99.90;;;;;;6185575;23;20020;-67
2023/05/22 00:21:44;;;;;;;28.60;19.27;;;18.40;99.90;;;;;;6184766;23;20020;-68
2023/05/22 00:24:10;;;;;;;28.63;18.85;;;18.40;99.90;;;;;;6212001;23;20019;-67
2023/05/22 00:26:35;;;;;;;30.88;20.08;;;18.40;99.90;;;;;;6211615;23;20024;-68
2023/05/22 00:29:01;;;;;;;30.80;20.15;;;18.30;99.90;;;;;;6211249;23;20020;-68
2023/05/22 00:31:27;;;;;;;32.10;20.55;;;18.30;99.90;;;;;;6212261;23;20443;-68
2023/05/22 00:33:52;;;;;;;28.95;19.73;;;18.30;99.90;;;;;;6184204;23;20016;-68
2023/05/22 00:36:18;;;;;;;33.25;19.63;;;18.30;99.90;;;;;;6210763;23;20095;-67
2023/05/22 00:38:45;;;;;;;33.35;20.67;;;18.30;99.90;;;;;;6160352;23;20062;-67
2023/05/22 00:41:10;;;;;;;32.95;20.23;;;18.30;99.90;;;;;;6212003;23;20026;-67
2023/05/22 00:43:38;;;;;;;34.05;21.35;;;18.30;99.90;;;;;;6212295;23;20108;-68
2023/05/22 00:46:03;;;;;;;33.40;20.98;;;18.30;99.90;;;;;;6211785;23;20044;-67
2023/05/22 00:48:29;;;;;;;31.52;21.23;;;18.20;99.90;;;;;;6211869;23;20009;-68
2023/05/22 00:50:57;;;;;;;30.80;20.10;;;18.20;99.90;;;;;;6159971;23;20025;-67
2023/05/22 00:53:24;;;;;;;31.50;20.90;;;18.20;99.90;;;;;;6211638;23;20015;-68
2023/05/22 00:55:52;;;;;;;32.90;20.35;;;18.20;99.90;;;;;;6211667;23;20031;-68
2023/05/22 00:58:18;;;;;;;30.85;21.08;;;18.20;99.90;;;;;;6211466;23;20008;-66
2023/05/22 01:00:45;;;;;;;29.55;20.60;;;18.10;99.90;;;;;;6211428;23;20071;-67
2023/05/22 01:03:11;;;;;;;38.38;23.60;;;18.10;99.90;;;;;;6211618;23;20088;-67
2023/05/22 01:05:38;;;;;;;29.02;20.50;;;18.10;99.90;;;;;;6211585;23;20027;-67
2023/05/22 01:08:06;;;;;;;34.85;21.35;;;18.10;99.90;;;;;;6184718;23;20016;-67
2023/05/22 01:10:33;;;;;;;34.15;22.38;;;18.10;99.90;;;;;;6211610;23;20027;-67
2023/05/22 01:13:24;;;;;;;34.15;21.23;;;18.10;99.90;;;;;;6184626;23;20021;-68
2023/05/22 01:16:09;;;;;;;32.85;22.17;;;18.10;99.90;;;;;;6164669;23;20024;-67
2023/05/22 01:18:57;;;;;;;34.25;22.50;;;18.10;99.90;;;;;;6184620;23;20025;-68
2023/05/22 01:21:45;;;;;;;28.30;20.42;;;18.00;99.90;;;;;;6159843;23;20032;-68
2023/05/22 01:24:40;;;;;;;35.60;22.08;;;18.00;99.90;;;;;;6211586;23;20016;-68
2023/05/22 01:27:24;;;;;;;33.92;21.70;;;18.10;99.90;;;;;;6211601;23;20020;-68
2023/05/22 01:30:19;;;;;;;31.20;21.75;;;18.00;99.90;;;;;;6183915;23;20051;-68
2023/05/22 01:32:47;;;;;;;35.72;21.65;;;18.00;99.90;;;;;;6211166;23;20028;-68
2023/05/22 01:35:16;;;;;;;34.05;22.42;;;17.90;99.90;;;;;;6210606;23;20048;-68
2023/05/22 01:37:44;;;;;;;32.45;21.65;;;17.90;99.90;;;;;;6211306;23;20106;-68
2023/05/22 01:40:11;;;;;;;34.65;22.17;;;17.90;99.90;;;;;;6184322;23;20158;-68
2023/05/22 01:42:39;;;;;;;30.02;22.17;;;17.90;99.90;;;;;;6210975;23;20027;-68
2023/05/22 01:45:10;;;;;;;35.53;23.17;;;17.90;99.90;;;;;;6211392;23;20702;-68
2023/05/22 01:47:36;;;;;;;31.27;21.50;;;17.90;99.90;;;;;;6211244;23;20456;-68
2023/05/22 01:50:04;;;;;;;33.72;23.27;;;17.90;99.90;;;;;;6210954;23;20009;-68
2023/05/22 01:52:59;;;;;;;36.72;23.83;;;17.90;99.90;;;;;;6184265;23;20017;-67
2023/05/22 01:55:35;;;;;;;32.47;21.98;;;17.90;99.90;;;;;;6211210;23;20467;-67
2023/05/22 01:58:51;;;;;;;33.50;23.52;;;17.80;99.90;;;;;;6210987;23;20099;-68
2023/05/22 02:01:18;;;;;;;33.63;21.67;;;17.80;99.90;;;;;;6094022;23;20017;-67
2023/05/22 02:03:46;;;;;;;33.78;22.48;;;17.80;99.90;;;;;;6094214;23;20022;-68
2023/05/22 02:06:14;;;;;;;31.50;22.27;;;17.80;99.90;;;;;;6114405;23;20048;-67
2023/05/22 02:08:41;;;;;;;35.55;22.25;;;17.70;99.90;;;;;;6184405;23;20047;-67
2023/05/22 02:11:10;;;;;;;35.22;23.13;;;17.70;99.90;;;;;;6184590;23;20062;-67
2023/05/22 02:13:36;;;;;;;32.88;23.08;;;17.70;99.90;;;;;;6211185;23;20026;-67
2023/05/22 02:16:03;;;;;;;35.83;24.13;;;17.60;99.90;;;;;;6211512;23;20092;-67
2023/05/22 02:18:29;;;;;;;34.58;23.45;;;17.60;99.90;;;;;;6211154;23;20012;-68
2023/05/22 02:20:59;;;;;;;33.65;22.73;;;17.60;99.90;;;;;;6211821;23;20020;-67
2023/05/22 02:23:25;;;;;;;35.30;23.20;;;17.60;99.90;;;;;;6184255;23;20091;-68
2023/05/22 02:25:51;;;;;;;33.13;23.05;;;17.60;99.90;;;;;;6184129;23;20099;-67
2023/05/22 02:28:17;;;;;;;36.00;24.20;;;17.60;99.90;;;;;;6210631;23;20107;-68
2023/05/22 02:30:43;;;;;;;37.65;23.50;;;17.60;99.90;;;;;;6210407;23;20443;-67
2023/05/22 02:33:10;;;;;;;31.40;23.30;;;17.60;99.90;;;;;;6183951;23;20020;-67
2023/05/22 02:35:35;;;;;;;35.63;23.45;;;17.60;99.90;;;;;;6210740;23;20439;-67
2023/05/22 02:38:02;;;;;;;36.47;23.50;;;17.60;99.90;;;;;;6184162;23;20012;-68
2023/05/22 02:40:27;;;;;;;36.42;21.83;;;17.60;99.90;;;;;;6211017;23;20055;-67
2023/05/22 02:42:53;;;;;;;32.30;22.45;;;17.60;99.90;;;;;;6210756;23;20020;-68
2023/05/22 02:45:19;;;;;;;35.80;23.10;;;17.60;99.90;;;;;;6210800;23;20016;-67
2023/05/22 02:47:45;;;;;;;33.75;22.55;;;17.50;99.90;;;;;;6210800;23;20066;-68
2023/05/22 02:50:10;;;;;;;38.00;24.08;;;17.60;99.90;;;;;;6210368;23;20114;-68
2023/05/22 02:52:38;;;;;;;31.67;22.63;;;17.50;99.90;;;;;;6210885;23;20013;-68
2023/05/22 02:55:04;;;;;;;33.15;21.67;;;17.50;99.90;;;;;;6209904;23;20012;-68
2023/05/22 02:57:30;;;;;;;31.23;22.42;;;17.50;99.90;;;;;;6210712;23;20050;-67
2023/05/22 02:59:56;;;;;;;32.92;21.95;;;17.50;99.90;;;;;;6210892;23;20067;-67
2023/05/22 03:02:24;;;;;;;33.70;22.25;;;17.50;99.90;;;;;;6210666;23;20017;-67
2023/05/22 03:04:50;;;;;;;33.13;22.15;;;17.50;99.90;;;;;;6210919;23;20016;-67
2023/05/22 03:07:16;;;;;;;31.95;21.63;;;17.50;99.90;;;;;;6210759;23;20016;-68
2023/05/22 03:09:42;;;;;;;33.20;21.95;;;17.50;99.90;;;;;;6183609;23;20103;-67
2023/05/22 03:12:08;;;;;;;32.58;21.38;;;17.50;99.90;;;;;;6183847;23;20009;-67
2023/05/22 03:14:34;;;;;;;32.20;22.55;;;17.40;99.90;;;;;;6211186;23;20043;-68
2023/05/22 03:17:00;;;;;;;29.25;20.92;;;17.40;99.90;;;;;;6210901;23;20108;-66
2023/05/22 03:19:25;;;;;;;32.75;21.13;;;17.40;99.90;;;;;;6210893;23;20419;-67
2023/05/22 03:21:51;;;;;;;27.63;19.80;;;17.50;99.90;;;;;;6210907;23;20042;-67
2023/05/22 03:24:17;;;;;;;28.58;19.85;;;17.40;99.90;;;;;;6212206;23;20020;-67
2023/05/22 03:26:42;;;;;;;27.55;20.38;;;17.40;99.90;;;;;;6210464;23;20052;-68
2023/05/22 03:29:08;;;;;;;30.02;20.75;;;17.40;99.90;;;;;;6209833;23;20016;-68
2023/05/22 03:31:35;;;;;;;30.35;20.83;;;17.40;99.90;;;;;;6210301;23;20012;-67
2023/05/22 03:34:01;;;;;;;31.10;20.63;;;17.40;99.90;;;;;;6210649;23;20441;-67
2023/05/22 03:36:27;;;;;;;30.30;20.20;;;17.40;99.90;;;;;;6183805;23;20044;-67
2023/05/22 03:38:53;;;;;;;30.45;20.48;;;17.40;99.90;;;;;;6183567;23;20080;-68
2023/05/22 03:41:18;;;;;;;29.83;20.98;;;17.40;99.90;;;;;;6183362;23;20453;-67
2023/05/22 03:43:45;;;;;;;29.80;20.90;;;17.40;99.90;;;;;;6210110;23;20036;-67
2023/05/22 03:46:10;;;;;;;30.98;20.05;;;17.40;99.90;;;;;;6210592;23;20048;-67
2023/05/22 03:48:37;;;;;;;36.17;21.17;;;17.50;99.90;;;;;;6210630;23;20337;-68
2023/05/22 03:51:04;;;;;;;33.75;21.42;;;17.50;99.90;;;;;;6183753;23;20020;-67
2023/05/22 03:53:30;;;;;;;31.65;22.02;;;17.50;99.90;;;;;;6210894;23;20013;-68
2023/05/22 03:55:58;;;;;;;33.83;21.75;;;17.50;99.90;;;;;;6183832;23;20096;-66
2023/05/22 03:58:26;;;;;;;35.40;21.98;;;17.60;99.90;;;;;;6211969;23;20019;-67
2023/05/22 04:00:54;;;;;;;32.97;21.60;;;17.50;99.90;;;;;;6212318;23;20020;-67
2023/05/22 04:03:20;;;;;;;28.77;22.27;;;17.50;99.90;;;;;;6211935;23;20020;-67
2023/05/22 04:05:46;;;;;;;30.52;21.80;;;17.50;99.90;;;;;;6212344;23;20136;-67
2023/05/22 04:08:12;;;;;;;33.78;22.27;;;17.40;99.90;;;;;;6212113;23;20083;-68
2023/05/22 04:10:37;;;;;;;31.13;21.30;;;17.50;99.90;;;;;;6211771;23;20469;-67
2023/05/22 04:13:04;;;;;;;30.98;21.00;;;17.40;99.90;;;;;;6185252;23;20044;-67
2023/05/22 04:15:33;;;;;;;31.75;21.70;;;17.40;99.90;;;;;;6211990;23;20024;-67
2023/05/22 04:17:59;;;;;;;33.63;22.63;;;17.40;99.90;;;;;;6211963;23;20013;-67
2023/05/22 04:20:25;;;;;;;32.22;21.75;;;17.50;99.90;;;;;;6211793;23;20024;-67
2023/05/22 04:22:53;;;;;;;28.42;20.13;;;17.40;99.90;;;;;;6211534;23;20029;-67
2023/05/22 04:25:19;;;;;;;30.02;20.85;;;17.40;99.90;;;;;;6211983;23;20085;-66
2023/05/22 04:27:46;;;;;;;32.72;22.42;;;17.40;99.90;;;;;;6211951;23;20322;-67
2023/05/22 04:30:13;;;;;;;28.52;21.52;;;17.40;99.90;;;;;;6211270;23;20060;-65
2023/05/22 04:32:39;;;;;;;30.92;21.85;;;17.40;99.90;;;;;;6184855;23;20013;-67
2023/05/22 04:35:05;;;;;;;34.33;22.45;;;17.40;99.90;;;;;;6212038;23;20325;-67
2023/05/22 04:37:31;;;;;;;34.55;21.40;;;17.40;99.90;;;;;;6211925;23;20095;-67
2023/05/22 04:40:02;;;;;;;33.28;21.30;;;17.40;99.90;;;;;;6211980;23;20152;-68
2023/05/22 04:42:29;;;;;;;32.17;21.33;;;17.40;99.90;;;;;;6211692;23;20020;-68
2023/05/22 04:44:56;;;;;;;28.08;20.10;;;17.30;99.90;;;;;;6211887;23;20016;-68
2023/05/22 04:47:22;;;;;;;29.52;21.63;;;17.40;99.90;;;;;;6211567;23;20021;-67
2023/05/22 04:49:48;;;;;;;28.20;20.13;;;17.40;99.90;;;;;;6211440;23;20016;-67
2023/05/22 04:52:14;;;;;;;27.00;19.83;;;17.40;99.90;;;;;;6211483;23;20013;-67
2023/05/22 04:54:40;;;;;;;28.80;20.52;;;17.40;99.90;;;;;;6184718;23;20028;-67
2023/05/22 04:57:06;;;;;;;28.27;20.02;;;17.40;99.90;;;;;;6159745;23;20348;-67
2023/05/22 04:59:36;;;;;;;28.20;20.83;;;17.40;99.90;;;;;;6184823;23;20110;-67
2023/05/22 05:02:03;;;;;;;30.70;20.70;;;17.40;99.90;;;;;;6211892;23;20075;-67
2023/05/22 05:04:29;;;;;;;26.92;20.40;;;17.40;99.90;;;;;;6159817;23;20084;-67
2023/05/22 05:06:56;;;;;;;30.08;20.92;;;17.30;99.90;;;;;;6211621;23;20112;-67
2023/05/22 05:09:22;;;;;;;30.95;19.17;;;17.40;99.90;;;;;;6211592;23;20310;-67
2023/05/22 05:11:49;;;;;;;28.45;20.63;;;17.40;99.90;;;;;;6211380;23;20452;-67
2023/05/22 05:14:15;;;;;;;30.05;19.63;;;17.40;99.90;;;;;;6184527;23;20151;-68
2023/05/22 05:16:41;;;;;;;29.40;19.80;;;17.40;99.90;;;;;;6211667;23;20018;-67
2023/05/22 05:19:07;;;;;;;27.77;20.05;;;17.40;99.90;;;;;;6183402;23;20019;-68
2023/05/22 05:21:33;;;;;;;28.23;19.88;;;17.40;99.90;;;;;;6183624;23;20017;-68
2023/05/22 05:23:59;;;;;;;29.10;21.50;;;17.40;99.90;;;;;;6158386;23;20035;-67
2023/05/22 05:26:26;;;;;;;31.80;20.65;;;17.40;99.90;;;;;;6210591;23;20025;-68
2023/05/22 05:28:52;;;;;;;30.33;22.63;;;17.40;99.90;;;;;;6210597;23;20096;-67
2023/05/22 05:31:20;;;;;;;29.80;19.77;;;17.40;99.90;;;;;;6210781;23;20021;-67
2023/05/22 05:33:46;;;;;;;34.78;20.63;;;17.40;99.90;;;;;;6210663;23;20031;-68
2023/05/22 05:36:12;;;;;;;28.60;19.85;;;17.40;99.90;;;;;;6184048;23;20437;-68
2023/05/22 05:38:37;;;;;;;27.65;19.65;;;17.40;99.90;;;;;;6184075;23;20027;-68
2023/05/22 05:41:03;;;;;;;28.33;19.65;;;17.50;99.90;;;;;;6183754;23;20020;-67
2023/05/22 05:43:29;;;;;;;28.83;19.95;;;17.40;99.90;;;;;;6184289;23;20020;-68
2023/05/22 05:45:55;;;;;;;31.13;21.08;;;17.40;99.90;;;;;;6211412;23;20017;-67
2023/05/22 05:48:21;;;;;;;26.77;18.20;;;17.50;99.90;;;;;;6211279;23;20012;-68
2023/05/22 05:50:47;;;;;;;26.55;19.35;;;17.50;99.90;;;;;;6211121;23;20379;-67
2023/05/22 05:53:13;;;;;;;29.50;19.52;;;17.50;99.90;;;;;;6211276;23;20021;-68
2023/05/22 05:55:39;;;;;;;26.95;19.08;;;17.40;99.90;;;;;;6184048;23;20017;-67
2023/05/22 05:58:05;;;;;;;26.35;19.65;;;17.40;99.90;;;;;;6211067;23;20104;-67
2023/05/22 06:00:31;;;;;;;27.40;19.23;;;17.40;99.90;;;;;;6210953;23;20529;-68
2023/05/22 06:02:56;;;;;;;25.38;18.85;;;17.40;99.90;;;;;;6183279;23;20016;-67
2023/05/22 06:05:22;;;;;;;25.13;19.35;;;17.40;99.90;;;;;;6209362;23;20004;-68
2023/05/22 06:07:48;;;;;;;25.63;17.70;;;17.40;99.90;;;;;;6182969;23;20016;-68
2023/05/22 06:10:14;;;;;;;25.67;18.75;;;17.40;99.90;;;;;;6209151;23;20012;-67
2023/05/22 06:12:40;;;;;;;26.40;18.98;;;17.40;99.90;;;;;;6210201;23;20052;-67
2023/05/22 06:15:07;;;;;;;24.60;17.95;;;17.40;99.90;;;;;;6183446;23;20028;-67
2023/05/22 06:17:34;;;;;;;24.77;17.83;;;17.40;99.90;;;;;;6210499;23;20020;-69
2023/05/22 06:20:00;;;;;;;24.75;17.85;;;17.40;99.90;;;;;;6210697;23;20028;-68
2023/05/22 06:22:25;;;;;;;23.52;17.98;;;17.50;99.90;;;;;;6183721;23;20016;-69
2023/05/22 06:24:54;;;;;;;24.33;18.00;;;17.50;99.90;;;;;;6183541;23;20025;-68
2023/05/22 06:27:21;;;;;;;28.75;17.80;;;17.50;99.90;;;;;;6183738;23;20020;-69
2023/05/22 06:29:47;;;;;;;28.00;18.85;;;17.50;99.90;;;;;;6183255;23;20391;-68
2023/05/22 06:32:13;;;;;;;26.67;18.05;;;17.50;99.90;;;;;;6183537;23;20457;-68
2023/05/22 06:34:39;;;;;;;22.02;17.58;;;17.50;99.90;;;;;;6210532;23;20020;-68
2023/05/22 06:37:05;;;;;;;24.25;17.55;;;17.50;99.90;;;;;;6184048;23;20051;-68
2023/05/22 06:39:31;;;;;;;26.23;18.25;;;17.50;99.90;;;;;;6183539;23;20016;-68
2023/05/22 06:41:57;;;;;;;29.40;18.55;;;17.50;99.90;;;;;;6183690;23;20016;-68
2023/05/22 06:44:24;;;;;;;26.98;18.05;;;17.60;99.90;;;;;;6210659;23;20013;-68
2023/05/22 06:46:51;;;;;;;24.23;18.10;;;17.60;99.90;;;;;;6183889;23;20150;-67
2023/05/22 06:49:17;;;;;;;22.88;17.50;;;17.60;99.90;;;;;;6211008;23;20088;-68
2023/05/22 06:51:43;;;;;;;30.13;18.75;;;17.60;99.90;;;;;;6184007;23;20019;-68
2023/05/22 06:54:11;;;;;;;29.10;17.45;;;17.70;99.90;;;;;;6210819;23;20013;-68
2023/05/22 06:56:37;;;;;;;28.05;18.80;;;17.70;99.90;;;;;;6184019;23;20562;-68
2023/05/22 06:59:03;;;;;;;27.38;19.27;;;17.70;99.90;;;;;;6183620;23;20012;-69
2023/05/22 07:01:28;;;;;;;23.70;18.45;;;17.80;99.90;;;;;;6210791;23;20020;-69
2023/05/22 07:04:00;;;;;;;24.75;18.00;;;17.80;99.90;;;;;;6183666;23;20016;-68
2023/05/22 07:06:26;;;;;;;24.10;18.30;;;17.80;99.90;;;;;;6210261;23;20055;-68
2023/05/22 07:08:52;;;;;;;29.05;18.08;;;17.80;99.90;;;;;;6183312;23;20009;-69
2023/05/22 07:11:18;;;;;;;27.38;18.75;;;17.90;99.90;;;;;;6183409;23;20136;-68
2023/05/22 07:13:43;;;;;;;26.30;18.70;;;17.80;99.90;;;;;;6210057;23;20136;-69
2023/05/22 07:16:09;;;;;;;25.73;18.85;;;17.80;99.90;;;;;;6210167;23;20094;-68
2023/05/22 07:18:35;;;;;;;24.50;18.52;;;17.90;99.90;;;;;;6158484;23;20032;-68
2023/05/22 07:21:01;;;;;;;25.23;18.70;;;17.80;99.90;;;;;;6183291;23;20020;-67
2023/05/22 07:23:27;;;;;;;23.70;18.00;;;17.80;99.90;;;;;;6183137;23;20013;-68
2023/05/22 07:25:53;;;;;;;25.98;19.48;;;17.80;99.90;;;;;;6210031;23;20380;-68
2023/05/22 07:28:18;;;;;;;26.52;18.20;;;17.80;99.90;;;;;;6183103;23;20103;-68
2023/05/22 07:30:44;;;;;;;23.10;17.60;;;17.80;99.90;;;;;;6183328;23;20108;-68
2023/05/22 07:33:10;;;;;;;23.55;18.08;;;17.80;99.90;;;;;;6184980;23;20017;-68
2023/05/22 07:35:36;;;;;;;28.60;17.98;;;17.80;99.90;;;;;;6185319;23;20028;-66
2023/05/22 07:38:02;;;;;;;27.70;18.83;;;17.80;99.90;;;;;;6185930;23;20098;-68
2023/05/22 07:40:28;;;;;;;31.23;18.77;;;17.80;99.90;;;;;;6212344;23;20027;-68
2023/05/22 07:42:54;;;;;;;29.63;19.48;;;17.80;99.90;;;;;;6160575;23;20021;-69
2023/05/22 07:45:20;;;;;;;29.67;18.40;;;17.80;99.90;;;;;;6212462;23;20055;-67
2023/05/22 07:47:45;;;;;;;32.92;18.40;;;17.80;99.90;;;;;;6212483;23;20378;-68
2023/05/22 07:50:11;;;;;;;28.50;19.38;;;17.80;99.90;;;;;;6211981;23;20440;-68
2023/05/22 07:52:37;;;;;;;24.27;17.45;;;17.80;99.90;;;;;;6212959;23;20016;-68
2023/05/22 07:55:03;;;;;;;29.83;18.45;;;17.80;99.90;;;;;;6213330;23;20468;-69
2023/05/22 07:57:29;;;;;;;27.33;18.38;;;17.90;99.90;;;;;;6213328;23;20023;-67
2023/05/22 07:59:55;;;;;;;28.13;18.85;;;17.90;99.90;;;;;;6212520;23;20353;-67
2023/05/22 08:02:21;;;;;;;25.42;19.30;;;17.80;99.90;;;;;;6185834;23;20028;-67
2023/05/22 08:04:49;;;;;;;24.63;18.13;;;17.80;99.90;;;;;;6212434;23;20013;-67
2023/05/22 08:07:14;;;;;;;22.88;17.05;;;17.90;99.90;;;;;;6212567;23;20029;-66
2023/05/22 08:09:40;;;;;;;24.73;18.15;;;17.90;99.90;;;;;;6211834;23;20091;-67
2023/05/22 08:12:06;;;;;;;26.25;19.10;;;18.00;99.90;;;;;;6211753;23;20071;-67
2023/05/22 08:14:32;;;;;;;24.58;17.80;;;18.00;99.90;;;;;;6212044;23;20058;-67
2023/05/22 08:16:59;;;;;;;26.08;18.13;;;18.00;99.90;;;;;;6210827;23;20022;-67
2023/05/22 08:19:25;;;;;;;23.88;17.50;;;18.00;99.90;;;;;;6211674;23;20655;-65
2023/05/22 08:21:56;;;;;;;28.00;18.80;;;17.90;99.90;;;;;;6211937;23;20024;-67
2023/05/22 08:24:29;;;;;;;23.02;16.88;;;18.00;99.90;;;;;;6211677;23;20440;-67
2023/05/22 08:26:59;;;;;;;27.38;17.25;;;18.00;99.90;;;;;;6184890;23;20396;-66
2023/05/22 08:29:25;;;;;;;23.75;17.25;;;18.00;99.90;;;;;;6211296;23;20103;-67
2023/05/22 08:31:52;;;;;;;24.52;16.23;;;17.90;99.90;;;;;;6211535;23;20019;-67
2023/05/22 08:34:18;;;;;;;21.45;16.15;;;18.00;99.90;;;;;;6211865;23;20105;-67
2023/05/22 08:36:44;;;;;;;24.58;15.88;;;18.00;99.90;;;;;;6211825;23;20048;-67
2023/05/22 08:39:10;;;;;;;24.52;17.23;;;18.00;99.90;;;;;;6211404;23;20036;-67
2023/05/22 08:41:37;;;;;;;21.05;14.60;;;18.10;99.90;;;;;;6211790;23;20044;-67
2023/05/22 08:44:03;;;;;;;21.70;16.38;;;18.10;99.90;;;;;;6211624;23;20013;-67
2023/05/22 08:46:31;;;;;;;21.58;14.25;;;18.10;99.90;;;;;;6211660;23;20449;-67
2023/05/22 08:48:57;;;;;;;21.60;15.68;;;18.10;99.90;;;;;;6184571;23;20052;-67
2023/05/22 08:51:27;;;;;;;19.23;14.48;;;18.30;99.90;;;;;;6211080;23;20023;-67
2023/05/22 08:53:56;;;;;;;24.20;15.65;;;18.30;99.90;;;;;;6211246;23;20094;-67
2023/05/22 08:56:22;;;;;;;26.40;15.15;;;18.30;99.90;;;;;;6211344;23;20096;-67
2023/05/22 08:58:50;;;;;;;21.52;14.98;;;18.40;99.90;;;;;;6211634;23;20047;-68
2023/05/22 09:01:16;;;;;;;21.13;14.68;;;18.60;99.90;;;;;;6211538;23;20096;-68
2023/05/22 09:03:42;;;;;;;21.13;14.63;;;18.60;99.90;;;;;;6184309;23;20528;-68
2023/05/22 09:06:09;;;;;;;22.55;14.30;;;18.80;99.90;;;;;;6184328;23;20150;-68
2023/05/22 09:08:36;;;;;;;17.92;13.05;;;19.00;99.90;;;;;;6184439;23;20461;-69
2023/05/22 09:11:02;;;;;;;18.27;13.30;;;19.10;99.90;;;;;;6210984;23;20353;-67
2023/05/22 09:13:30;;;;;;;22.92;14.32;;;19.20;99.90;;;;;;6211121;23;20022;-67
2023/05/22 09:16:06;;;;;;;16.85;13.68;;;19.30;99.90;;;;;;6184361;23;20423;-67
2023/05/22 09:18:32;;;;;;;20.42;13.77;;;19.40;99.90;;;;;;6183948;23;20345;-67
2023/05/22 09:20:58;;;;;;;21.55;13.40;;;19.40;99.90;;;;;;6211119;23;20016;-66
2023/05/22 09:23:27;;;;;;;22.13;13.20;;;19.50;99.90;;;;;;6211314;23;20028;-65
2023/05/22 09:25:57;;;;;;;16.95;12.63;;;19.70;99.90;;;;;;6184248;23;20028;-67
2023/05/22 09:28:23;;;;;;;19.10;13.70;;;19.90;99.90;;;;;;6210923;23;20024;-67
2023/05/22 09:30:53;;;;;;;18.75;13.32;;;19.80;99.90;;;;;;6210918;23;20016;-67
2023/05/22 09:33:21;;;;;;;20.08;12.50;;;19.80;99.90;;;;;;6210372;23;20143;-67
2023/05/22 09:35:47;;;;;;;19.85;12.25;;;20.00;99.90;;;;;;6211236;23;20076;-67
2023/05/22 09:38:13;;;;;;;18.58;13.35;;;20.20;99.90;;;;;;6211336;23;20075;-67
2023/05/22 09:40:39;;;;;;;17.20;12.15;;;20.10;99.90;;;;;;6159312;23;20432;-66
2023/05/22 09:43:16;;;;;;;21.17;13.02;;;20.20;99.90;;;;;;6211059;23;20027;-67
2023/05/22 09:45:41;;;;;;;18.05;12.90;;;20.40;99.90;;;;;;6184075;23;20108;-67
2023/05/22 09:48:08;;;;;;;16.85;11.80;;;20.40;99.90;;;;;;6210484;23;20013;-67
2023/05/22 09:50:40;;;;;;;18.38;12.32;;;20.40;99.90;;;;;;6183723;23;20075;-67
2023/05/22 09:53:09;;;;;;;18.20;12.73;;;20.50;99.90;;;;;;6211218;23;20016;-67
2023/05/22 09:55:37;;;;;;;16.98;12.45;;;20.50;99.90;;;;;;6184112;23;20017;-67
2023/05/22 09:58:05;;;;;;;16.00;11.75;;;20.70;99.90;;;;;;6211271;23;20012;-67
2023/05/22 10:00:33;;;;;;;17.35;11.77;;;20.90;99.90;;;;;;6211295;23;20134;-67
2023/05/22 10:03:10;;;;;;;16.30;12.55;;;21.00;99.90;;;;;;6183676;23;20358;-67
2023/05/22 10:05:39;;;;;;;16.23;11.15;;;20.90;99.90;;;;;;6210974;23;20024;-66
2023/05/22 10:08:12;;;;;;;21.85;12.55;;;21.00;99.90;;;;;;6211334;23;20023;-67
2023/05/22 10:10:41;;;;;;;16.40;11.82;;;21.10;99.90;;;;;;6211194;23;20181;-67
2023/05/22 10:13:07;;;;;;;18.33;11.88;;;21.00;99.90;;;;;;6210762;23;20086;-67
2023/05/22 10:15:34;;;;;;;16.17;10.93;;;20.90;99.90;;;;;;6210570;23;20023;-67
2023/05/22 10:18:01;;;;;;;15.73;11.55;;;20.90;99.90;;;;;;6210867;23;20193;-67
2023/05/22 10:20:28;;;;;;;18.58;12.18;;;21.00;99.90;;;;;;6210873;23;20016;-67
2023/05/22 10:22:55;;;;;;;15.35;11.50;;;20.90;99.90;;;;;;6183860;23;20090;-67
2023/05/22 10:25:21;;;;;;;15.93;12.05;;;20.90;99.90;;;;;;6210407;23;20040;-67
2023/05/22 10:27:48;;;;;;;22.80;13.00;;;20.90;99.90;;;;;;6210775;23;20337;-67
2023/05/22 10:30:35;;;;;;;15.77;12.05;;;20.90;99.90;;;;;;6209813;23;20031;-67
2023/05/22 10:33:01;;;;;;;13.88;11.02;;;20.80;99.90;;;;;;6210728;23;20020;-67
2023/05/22 10:35:50;;;;;;;17.48;11.50;;;20.90;99.90;;;;;;6210726;23;20451;-67
2023/05/22 10:38:30;;;;;;;18.20;11.77;;;20.80;99.90;;;;;;6210759;23;20416;-67
2023/05/22 10:40:56;;;;;;;18.15;11.68;;;20.70;99.90;;;;;;6210598;23;20028;-67
2023/05/22 10:43:22;;;;;;;17.85;10.40;;;20.80;99.90;;;;;;6183595;23;20016;-67
2023/05/22 10:45:48;;;;;;;18.08;12.13;;;20.90;99.90;;;;;;6210091;23;20143;-67
2023/05/22 10:48:15;;;;;;;17.23;12.18;;;20.80;99.90;;;;;;6210324;23;20115;-68
2023/05/22 10:50:51;;;;;;;15.35;11.80;;;20.80;99.90;;;;;;6210368;23;20019;-66
2023/05/22 10:53:35;;;;;;;17.42;12.18;;;21.10;99.90;;;;;;6183748;23;20004;-67
2023/05/22 10:56:12;;;;;;;20.27;11.63;;;21.10;99.90;;;;;;6210782;23;20013;-66
2023/05/22 11:03:54;;;;;;;18.25;11.88;;;21.20;99.90;;;;;;6241019;23;20028;-67
2023/05/22 11:06:48;;;;;;;18.77;12.60;;;21.10;99.90;;;;;;6239843;23;20092;-66
2023/05/22 11:09:46;;;;;;;15.50;12.38;;;21.30;99.90;;;;;;6236184;23;20020;-67
2023/05/22 11:12:26;;;;;;;14.95;10.27;;;21.20;99.90;;;;;;6231727;22;20024;-66
2023/05/22 11:15:06;;;;;;;18.27;12.43;;;21.60;99.90;;;;;;6242752;22;20020;-67
2023/05/22 11:17:35;;;;;;;15.20;11.82;;;21.40;99.90;;;;;;6242857;22;20021;-67
2023/05/22 11:20:18;;;;;;;17.38;11.88;;;21.50;99.90;;;;;;6242802;22;20019;-67
2023/05/22 11:22:56;;;;;;;20.15;11.40;;;21.60;99.90;;;;;;6242814;23;20012;-67
2023/05/22 11:25:23;;;;;;;15.45;10.98;;;21.60;99.90;;;;;;6241372;23;20064;-67
2023/05/22 11:27:48;;;;;;;15.32;12.55;;;21.50;99.90;;;;;;6241810;22;20095;-67
2023/05/22 11:30:15;;;;;;;15.45;10.88;;;21.50;99.90;;;;;;6242265;23;20059;-67
2023/05/22 11:32:44;;;;;;;19.98;11.63;;;21.60;99.90;;;;;;6242762;22;20676;-66
2023/05/22 11:35:20;;;;;;;15.07;11.50;;;21.60;99.90;;;;;;6242074;22;20012;-66
2023/05/22 11:37:47;;;;;;;17.90;12.05;;;21.70;99.90;;;;;;6242485;22;20020;-67
2023/05/22 11:40:15;;;;;;;17.05;12.07;;;21.80;99.90;;;;;;6242631;22;20047;-67
2023/05/22 11:42:41;;;;;;;13.93;11.07;;;21.80;99.90;;;;;;6242050;22;20016;-67
2023/05/22 11:45:07;;;;;;;15.68;10.95;;;21.90;99.90;;;;;;6240082;23;20019;-67
2023/05/22 11:47:33;;;;;;;18.45;11.63;;;22.00;99.90;;;;;;6242292;23;20024;-67
2023/05/22 11:50:00;;;;;;;17.60;12.27;;;22.10;99.90;;;;;;6242219;23;20546;-67
2023/05/22 11:52:32;;;;;;;20.33;12.82;;;22.10;99.90;;;;;;6240617;23;20027;-67
2023/05/22 11:54:58;;;;;;;19.80;13.82;;;22.20;99.90;;;;;;6240295;23;20129;-67
2023/05/22 11:57:24;;;;;;;19.38;12.20;;;22.30;99.90;;;;;;6241860;22;20515;-67
2023/05/22 11:59:50;;;;;;;17.85;11.73;;;22.20;99.90;;;;;;6242335;22;20020;-66
2023/05/22 12:02:17;;;;;;;20.35;12.55;;;22.50;99.90;;;;;;6242528;22;20054;-67
2023/05/22 12:04:43;;;;;;;17.75;11.95;;;22.40;99.90;;;;;;6242548;22;20065;-67
2023/05/22 12:07:08;;;;;;;21.23;12.88;;;22.50;99.90;;;;;;6242138;22;20325;-67
2023/05/22 12:09:37;;;;;;;19.90;13.82;;;22.60;99.90;;;;;;6242455;22;20099;-67
2023/05/22 12:12:02;;;;;;;18.33;13.85;;;22.60;99.90;;;;;;6242303;22;20030;-67
2023/05/22 12:14:32;;;;;;;20.48;14.43;;;22.80;99.90;;;;;;6242575;22;20091;-67
2023/05/22 12:16:58;;;;;;;20.80;13.77;;;22.70;99.90;;;;;;6243850;22;20047;-67
2023/05/22 12:19:25;;;;;;;19.38;13.95;;;22.60;99.90;;;;;;6243051;22;20083;-67
2023/05/22 12:21:52;;;;;;;18.48;13.15;;;22.60;99.90;;;;;;6240732;23;20016;-67
2023/05/22 12:24:23;;;;;;;20.38;13.13;;;22.60;99.90;;;;;;6242407;22;20086;-67
2023/05/22 12:26:52;;;;;;;17.10;12.88;;;22.80;99.90;;;;;;6241880;22;20008;-67
2023/05/22 12:29:22;;;;;;;17.88;12.32;;;22.70;99.90;;;;;;6242015;22;20016;-67
2023/05/22 12:31:48;;;;;;;19.88;13.02;;;22.90;99.90;;;;;;6240301;23;20348;-66
2023/05/22 12:34:17;;;;;;;13.73;11.13;;;22.90;99.90;;;;;;6240417;23;20012;-67
2023/05/22 12:36:45;;;;;;;16.83;12.05;;;23.00;99.90;;;;;;6242320;22;20020;-67
2023/05/22 12:39:17;;;;;;;19.23;13.13;;;23.10;99.90;;;;;;6242323;22;20012;-67